Crabbs Prairie, Texas
Current Conditions -  °F | °C
As of 2:53 PM on Sunday 21 Dec 2014 (Local Time) from KUTS Reporting Station
Overcast Overcast  
Wind Chill: 56°   Ceiling: 2200
Heat Index: 56°   Visibility: 10mi
Dew Point: 47°   Wind: 7mph
Humidity: 72%   Direction: 190°S
Pressure: 29.97"   Gusts: NA
Location:  30.7067°N, 95.5483°W
Report Text: KUTS 212053Z AUTO 19006KT 10SM OVC022 13/08 A2997 RMK AO2 SLP148 T01330083 56037
Loading
Personal Weather Stations






























Interactive Weather Map New forecast layout! Learn more

10-Day Weather Forecast

Advertisements
Track Severe Weather on mobile